sensor_id;sensor_type;location;lat;lon;timestamp;P1;durP1;ratioP1;P2;durP2;ratioP2
33160;SDS011;19522;45.656;11.302;2023-06-22T00:01:09;19.63;;;14.73;;
33160;SDS011;19522;45.656;11.302;2023-06-22T00:03:34;20.60;;;14.80;;
33160;SDS011;19522;45.656;11.302;2023-06-22T00:05:59;19.08;;;14.30;;
33160;SDS011;19522;45.656;11.302;2023-06-22T00:08:25;17.65;;;13.95;;
33160;SDS011;19522;45.656;11.302;2023-06-22T00:10:50;18.20;;;14.48;;
33160;SDS011;19522;45.656;11.302;2023-06-22T00:13:16;21.08;;;14.10;;
33160;SDS011;19522;45.656;11.302;2023-06-22T00:15:43;18.73;;;14.65;;
33160;SDS011;19522;45.656;11.302;2023-06-22T00:18:09;20.67;;;14.65;;
33160;SDS011;19522;45.656;11.302;2023-06-22T00:20:35;18.00;;;13.68;;
33160;SDS011;19522;45.656;11.302;2023-06-22T00:23:05;22.65;;;14.40;;
33160;SDS011;19522;45.656;11.302;2023-06-22T00:25:39;18.02;;;13.88;;
33160;SDS011;19522;45.656;11.302;2023-06-22T00:28:06;21.42;;;16.30;;
33160;SDS011;19522;45.656;11.302;2023-06-22T00:30:32;19.52;;;15.32;;
33160;SDS011;19522;45.656;11.302;2023-06-22T00:32:59;18.95;;;14.80;;
33160;SDS011;19522;45.656;11.302;2023-06-22T00:35:25;21.02;;;14.80;;
33160;SDS011;19522;45.656;11.302;2023-06-22T00:37:57;19.13;;;14.07;;
33160;SDS011;19522;45.656;11.302;2023-06-22T00:40:29;15.70;;;13.75;;
33160;SDS011;19522;45.656;11.302;2023-06-22T00:43:01;17.02;;;14.38;;
33160;SDS011;19522;45.656;11.302;2023-06-22T00:45:27;22.17;;;14.40;;
33160;SDS011;19522;45.656;11.302;2023-06-22T00:47:55;15.93;;;14.25;;
33160;SDS011;19522;45.656;11.302;2023-06-22T00:50:23;20.90;;;13.68;;
33160;SDS011;19522;45.656;11.302;2023-06-22T00:52:51;18.90;;;14.25;;
33160;SDS011;19522;45.656;11.302;2023-06-22T00:55:18;19.88;;;14.15;;
33160;SDS011;19522;45.656;11.302;2023-06-22T00:57:46;17.65;;;15.10;;
33160;SDS011;19522;45.656;11.302;2023-06-22T01:00:13;19.63;;;15.25;;
33160;SDS011;19522;45.656;11.302;2023-06-22T01:02:41;21.02;;;15.45;;
33160;SDS011;19522;45.656;11.302;2023-06-22T01:05:11;15.88;;;13.25;;
33160;SDS011;19522;45.656;11.302;2023-06-22T01:13:42;20.92;;;14.18;;
33160;SDS011;19522;45.656;11.302;2023-06-22T01:16:35;18.05;;;13.70;;
33160;SDS011;19522;45.656;11.302;2023-06-22T01:19:15;18.92;;;15.98;;
33160;SDS011;19522;45.656;11.302;2023-06-22T01:22:03;22.17;;;15.07;;
33160;SDS011;19522;45.656;11.302;2023-06-22T01:24:32;18.70;;;14.57;;
33160;SDS011;19522;45.656;11.302;2023-06-22T01:29:55;18.80;;;15.48;;
33160;SDS011;19522;45.656;11.302;2023-06-22T01:32:31;20.17;;;15.15;;
33160;SDS011;19522;45.656;11.302;2023-06-22T01:35:00;20.42;;;14.98;;
33160;SDS011;19522;45.656;11.302;2023-06-22T01:37:28;20.27;;;15.73;;
33160;SDS011;19522;45.656;11.302;2023-06-22T01:39:54;18.40;;;16.15;;
33160;SDS011;19522;45.656;11.302;2023-06-22T01:42:23;16.90;;;15.18;;
33160;SDS011;19522;45.656;11.302;2023-06-22T01:44:50;19.98;;;15.23;;
33160;SDS011;19522;45.656;11.302;2023-06-22T01:47:22;19.80;;;16.23;;
33160;SDS011;19522;45.656;11.302;2023-06-22T01:49:49;22.10;;;16.13;;
33160;SDS011;19522;45.656;11.302;2023-06-22T01:52:17;22.33;;;15.65;;
33160;SDS011;19522;45.656;11.302;2023-06-22T01:54:42;29.45;;;22.92;;
33160;SDS011;19522;45.656;11.302;2023-06-22T01:57:08;18.98;;;16.52;;
33160;SDS011;19522;45.656;11.302;2023-06-22T01:59:39;18.75;;;15.23;;
33160;SDS011;19522;45.656;11.302;2023-06-22T02:02:21;19.25;;;15.45;;
33160;SDS011;19522;45.656;11.302;2023-06-22T02:04:56;17.48;;;15.00;;
33160;SDS011;19522;45.656;11.302;2023-06-22T02:07:26;20.27;;;15.82;;
33160;SDS011;19522;45.656;11.302;2023-06-22T02:09:57;18.10;;;16.17;;
33160;SDS011;19522;45.656;11.302;2023-06-22T02:12:24;18.38;;;15.43;;
33160;SDS011;19522;45.656;11.302;2023-06-22T02:14:53;16.88;;;15.07;;
33160;SDS011;19522;45.656;11.302;2023-06-22T02:17:21;18.23;;;15.40;;
33160;SDS011;19522;45.656;11.302;2023-06-22T02:19:48;21.73;;;16.42;;
33160;SDS011;19522;45.656;11.302;2023-06-22T02:22:14;21.50;;;16.35;;
33160;SDS011;19522;45.656;11.302;2023-06-22T02:24:39;19.23;;;16.75;;
33160;SDS011;19522;45.656;11.302;2023-06-22T02:27:05;20.30;;;16.33;;
33160;SDS011;19522;45.656;11.302;2023-06-22T02:29:32;19.40;;;15.85;;
33160;SDS011;19522;45.656;11.302;2023-06-22T02:31:57;20.27;;;15.77;;
33160;SDS011;19522;45.656;11.302;2023-06-22T02:34:23;20.90;;;15.55;;
33160;SDS011;19522;45.656;11.302;2023-06-22T02:36:49;19.05;;;15.88;;
33160;SDS011;19522;45.656;11.302;2023-06-22T02:39:21;21.50;;;16.33;;
33160;SDS011;19522;45.656;11.302;2023-06-22T02:41:49;18.95;;;16.20;;
33160;SDS011;19522;45.656;11.302;2023-06-22T02:44:15;21.08;;;17.00;;
33160;SDS011;19522;45.656;11.302;2023-06-22T02:46:41;22.30;;;17.13;;
33160;SDS011;19522;45.656;11.302;2023-06-22T02:49:07;21.13;;;17.63;;
33160;SDS011;19522;45.656;11.302;2023-06-22T02:51:33;20.83;;;18.38;;
33160;SDS011;19522;45.656;11.302;2023-06-22T02:53:59;20.80;;;17.33;;
33160;SDS011;19522;45.656;11.302;2023-06-22T02:56:25;19.83;;;16.80;;
33160;SDS011;19522;45.656;11.302;2023-06-22T02:58:51;24.35;;;16.45;;
33160;SDS011;19522;45.656;11.302;2023-06-22T03:01:17;22.00;;;17.67;;
33160;SDS011;19522;45.656;11.302;2023-06-22T03:03:50;26.45;;;17.75;;
33160;SDS011;19522;45.656;11.302;2023-06-22T03:06:15;20.73;;;16.92;;
33160;SDS011;19522;45.656;11.302;2023-06-22T03:08:48;19.00;;;17.00;;
33160;SDS011;19522;45.656;11.302;2023-06-22T03:11:16;22.90;;;17.08;;
33160;SDS011;19522;45.656;11.302;2023-06-22T03:13:41;19.88;;;16.98;;
33160;SDS011;19522;45.656;11.302;2023-06-22T03:16:08;20.38;;;17.00;;
33160;SDS011;19522;45.656;11.302;2023-06-22T03:18:33;20.25;;;17.33;;
33160;SDS011;19522;45.656;11.302;2023-06-22T03:20:59;21.10;;;18.88;;
33160;SDS011;19522;45.656;11.302;2023-06-22T03:23:27;21.83;;;18.70;;
33160;SDS011;19522;45.656;11.302;2023-06-22T03:25:52;23.23;;;17.15;;
33160;SDS011;19522;45.656;11.302;2023-06-22T03:28:23;22.90;;;17.95;;
33160;SDS011;19522;45.656;11.302;2023-06-22T03:30:49;20.52;;;16.98;;
33160;SDS011;19522;45.656;11.302;2023-06-22T03:33:14;19.33;;;17.25;;
33160;SDS011;19522;45.656;11.302;2023-06-22T03:35:40;19.42;;;16.90;;
33160;SDS011;19522;45.656;11.302;2023-06-22T03:38:06;20.42;;;17.48;;
33160;SDS011;19522;45.656;11.302;2023-06-22T03:40:31;22.55;;;18.65;;
33160;SDS011;19522;45.656;11.302;2023-06-22T03:42:57;19.67;;;17.38;;
33160;SDS011;19522;45.656;11.302;2023-06-22T03:45:22;19.95;;;17.83;;
33160;SDS011;19522;45.656;11.302;2023-06-22T03:47:48;22.70;;;16.98;;
33160;SDS011;19522;45.656;11.302;2023-06-22T03:50:13;20.77;;;17.73;;
33160;SDS011;19522;45.656;11.302;2023-06-22T03:52:39;21.35;;;18.63;;
33160;SDS011;19522;45.656;11.302;2023-06-22T03:55:06;19.80;;;17.70;;
33160;SDS011;19522;45.656;11.302;2023-06-22T03:57:32;23.52;;;18.20;;
33160;SDS011;19522;45.656;11.302;2023-06-22T03:59:58;22.20;;;17.77;;
33160;SDS011;19522;45.656;11.302;2023-06-22T04:02:24;19.90;;;17.20;;
33160;SDS011;19522;45.656;11.302;2023-06-22T04:04:49;20.23;;;17.58;;
33160;SDS011;19522;45.656;11.302;2023-06-22T04:07:15;20.95;;;17.55;;
33160;SDS011;19522;45.656;11.302;2023-06-22T04:09:40;20.33;;;17.15;;
33160;SDS011;19522;45.656;11.302;2023-06-22T04:12:09;19.70;;;17.65;;
33160;SDS011;19522;45.656;11.302;2023-06-22T04:14:38;19.75;;;17.65;;
33160;SDS011;19522;45.656;11.302;2023-06-22T04:17:03;21.38;;;17.42;;
33160;SDS011;19522;45.656;11.302;2023-06-22T04:19:32;26.85;;;18.52;;
33160;SDS011;19522;45.656;11.302;2023-06-22T04:21:58;23.90;;;19.08;;
33160;SDS011;19522;45.656;11.302;2023-06-22T04:24:23;22.02;;;19.10;;
33160;SDS011;19522;45.656;11.302;2023-06-22T04:26:49;24.75;;;18.58;;
33160;SDS011;19522;45.656;11.302;2023-06-22T04:29:18;22.20;;;18.02;;
33160;SDS011;19522;45.656;11.302;2023-06-22T04:31:44;21.50;;;18.23;;
33160;SDS011;19522;45.656;11.302;2023-06-22T04:34:09;21.83;;;18.25;;
33160;SDS011;19522;45.656;11.302;2023-06-22T04:36:38;18.40;;;16.50;;
33160;SDS011;19522;45.656;11.302;2023-06-22T04:39:06;18.17;;;16.17;;
33160;SDS011;19522;45.656;11.302;2023-06-22T04:41:34;24.73;;;17.25;;
33160;SDS011;19522;45.656;11.302;2023-06-22T04:44:19;23.30;;;16.83;;
33160;SDS011;19522;45.656;11.302;2023-06-22T04:49:19;21.60;;;17.02;;
33160;SDS011;19522;45.656;11.302;2023-06-22T04:51:45;24.00;;;17.05;;
33160;SDS011;19522;45.656;11.302;2023-06-22T04:54:11;19.45;;;17.38;;
33160;SDS011;19522;45.656;11.302;2023-06-22T04:56:37;23.27;;;17.27;;
33160;SDS011;19522;45.656;11.302;2023-06-22T04:59:06;18.58;;;16.65;;
33160;SDS011;19522;45.656;11.302;2023-06-22T05:01:32;19.80;;;16.30;;
33160;SDS011;19522;45.656;11.302;2023-06-22T05:03:57;23.67;;;17.50;;
33160;SDS011;19522;45.656;11.302;2023-06-22T05:06:25;20.27;;;15.35;;
33160;SDS011;19522;45.656;11.302;2023-06-22T05:08:55;19.02;;;16.23;;
33160;SDS011;19522;45.656;11.302;2023-06-22T05:11:28;19.55;;;16.83;;
33160;SDS011;19522;45.656;11.302;2023-06-22T05:13:54;23.20;;;17.38;;
33160;SDS011;19522;45.656;11.302;2023-06-22T05:16:20;23.02;;;17.38;;
33160;SDS011;19522;45.656;11.302;2023-06-22T05:18:52;19.27;;;16.95;;
33160;SDS011;19522;45.656;11.302;2023-06-22T05:21:22;20.52;;;17.17;;
33160;SDS011;19522;45.656;11.302;2023-06-22T05:23:49;21.08;;;15.70;;
33160;SDS011;19522;45.656;11.302;2023-06-22T05:26:15;19.55;;;15.57;;
33160;SDS011;19522;45.656;11.302;2023-06-22T05:28:41;22.98;;;16.77;;
33160;SDS011;19522;45.656;11.302;2023-06-22T05:31:06;20.92;;;16.13;;
33160;SDS011;19522;45.656;11.302;2023-06-22T05:33:32;19.35;;;15.52;;
33160;SDS011;19522;45.656;11.302;2023-06-22T05:35:58;20.65;;;16.50;;
33160;SDS011;19522;45.656;11.302;2023-06-22T05:38:23;24.02;;;17.60;;
33160;SDS011;19522;45.656;11.302;2023-06-22T05:40:49;18.58;;;15.95;;
33160;SDS011;19522;45.656;11.302;2023-06-22T05:43:17;18.70;;;15.85;;
33160;SDS011;19522;45.656;11.302;2023-06-22T05:45:43;17.85;;;15.88;;
33160;SDS011;19522;45.656;11.302;2023-06-22T05:48:08;18.25;;;16.10;;
33160;SDS011;19522;45.656;11.302;2023-06-22T05:50:34;24.45;;;16.45;;
33160;SDS011;19522;45.656;11.302;2023-06-22T05:52:59;18.73;;;15.13;;
33160;SDS011;19522;45.656;11.302;2023-06-22T05:55:30;25.17;;;14.80;;
33160;SDS011;19522;45.656;11.302;2023-06-22T05:57:56;17.08;;;14.75;;
33160;SDS011;19522;45.656;11.302;2023-06-22T06:00:21;20.17;;;14.45;;
33160;SDS011;19522;45.656;11.302;2023-06-22T06:02:48;19.23;;;14.75;;
33160;SDS011;19522;45.656;11.302;2023-06-22T06:05:14;22.35;;;14.27;;
33160;SDS011;19522;45.656;11.302;2023-06-22T06:07:40;21.40;;;14.93;;
33160;SDS011;19522;45.656;11.302;2023-06-22T06:10:09;16.88;;;14.30;;
33160;SDS011;19522;45.656;11.302;2023-06-22T06:12:35;16.67;;;14.30;;
33160;SDS011;19522;45.656;11.302;2023-06-22T06:15:01;19.90;;;15.80;;
33160;SDS011;19522;45.656;11.302;2023-06-22T06:17:26;16.30;;;14.48;;
33160;SDS011;19522;45.656;11.302;2023-06-22T06:19:52;19.58;;;14.25;;
33160;SDS011;19522;45.656;11.302;2023-06-22T06:22:17;19.60;;;14.18;;
33160;SDS011;19522;45.656;11.302;2023-06-22T06:24:44;17.98;;;13.82;;
33160;SDS011;19522;45.656;11.302;2023-06-22T06:27:10;17.17;;;13.52;;
33160;SDS011;19522;45.656;11.302;2023-06-22T06:29:36;15.88;;;14.20;;
33160;SDS011;19522;45.656;11.302;2023-06-22T06:32:01;19.70;;;15.10;;
33160;SDS011;19522;45.656;11.302;2023-06-22T06:34:27;20.63;;;14.93;;
33160;SDS011;19522;45.656;11.302;2023-06-22T06:36:52;17.23;;;13.88;;
33160;SDS011;19522;45.656;11.302;2023-06-22T06:39:18;24.08;;;15.30;;
33160;SDS011;19522;45.656;11.302;2023-06-22T06:41:43;18.48;;;15.10;;
33160;SDS011;19522;45.656;11.302;2023-06-22T06:44:09;21.45;;;15.80;;
33160;SDS011;19522;45.656;11.302;2023-06-22T06:46:34;19.45;;;14.55;;
33160;SDS011;19522;45.656;11.302;2023-06-22T06:49:00;18.95;;;13.95;;
33160;SDS011;19522;45.656;11.302;2023-06-22T06:51:25;18.23;;;14.85;;
33160;SDS011;19522;45.656;11.302;2023-06-22T06:53:51;16.88;;;13.82;;
33160;SDS011;19522;45.656;11.302;2023-06-22T06:56:16;17.20;;;13.27;;
33160;SDS011;19522;45.656;11.302;2023-06-22T06:58:42;19.30;;;14.63;;
33160;SDS011;19522;45.656;11.302;2023-06-22T07:01:08;21.40;;;14.65;;
33160;SDS011;19522;45.656;11.302;2023-06-22T07:03:34;26.02;;;14.15;;
33160;SDS011;19522;45.656;11.302;2023-06-22T07:05:59;20.33;;;14.00;;
33160;SDS011;19522;45.656;11.302;2023-06-22T07:08:25;20.20;;;14.48;;
33160;SDS011;19522;45.656;11.302;2023-06-22T07:10:51;20.33;;;15.10;;
33160;SDS011;19522;45.656;11.302;2023-06-22T07:13:17;17.45;;;14.80;;
33160;SDS011;19522;45.656;11.302;2023-06-22T07:15:43;19.23;;;15.13;;
33160;SDS011;19522;45.656;11.302;2023-06-22T07:18:12;18.50;;;14.93;;
33160;SDS011;19522;45.656;11.302;2023-06-22T07:20:37;17.70;;;15.25;;
33160;SDS011;19522;45.656;11.302;2023-06-22T07:23:04;20.98;;;15.73;;
33160;SDS011;19522;45.656;11.302;2023-06-22T07:25:30;19.27;;;15.23;;
33160;SDS011;19522;45.656;11.302;2023-06-22T07:30:32;19.88;;;13.95;;
33160;SDS011;19522;45.656;11.302;2023-06-22T07:32:58;16.20;;;12.82;;
33160;SDS011;19522;45.656;11.302;2023-06-22T07:35:28;17.85;;;14.00;;
33160;SDS011;19522;45.656;11.302;2023-06-22T07:37:54;19.20;;;15.38;;
33160;SDS011;19522;45.656;11.302;2023-06-22T07:40:20;18.50;;;15.73;;
33160;SDS011;19522;45.656;11.302;2023-06-22T07:42:45;16.67;;;14.13;;
33160;SDS011;19522;45.656;11.302;2023-06-22T07:45:13;19.67;;;13.40;;
33160;SDS011;19522;45.656;11.302;2023-06-22T07:47:39;15.75;;;13.48;;
33160;SDS011;19522;45.656;11.302;2023-06-22T07:50:04;24.52;;;14.65;;
33160;SDS011;19522;45.656;11.302;2023-06-22T07:52:30;18.23;;;14.18;;
33160;SDS011;19522;45.656;11.302;2023-06-22T07:54:57;18.27;;;14.35;;
33160;SDS011;19522;45.656;11.302;2023-06-22T07:57:22;17.17;;;13.77;;
33160;SDS011;19522;45.656;11.302;2023-06-22T07:59:48;19.50;;;13.45;;
33160;SDS011;19522;45.656;11.302;2023-06-22T08:02:13;21.73;;;13.70;;
33160;SDS011;19522;45.656;11.302;2023-06-22T08:04:39;18.95;;;14.52;;
33160;SDS011;19522;45.656;11.302;2023-06-22T08:07:07;21.48;;;14.10;;
33160;SDS011;19522;45.656;11.302;2023-06-22T08:09:32;16.23;;;12.98;;
33160;SDS011;19522;45.656;11.302;2023-06-22T08:11:58;18.63;;;13.75;;
33160;SDS011;19522;45.656;11.302;2023-06-22T08:14:27;16.35;;;13.98;;
33160;SDS011;19522;45.656;11.302;2023-06-22T08:16:54;19.35;;;15.13;;
33160;SDS011;19522;45.656;11.302;2023-06-22T08:19:20;20.02;;;14.50;;
33160;SDS011;19522;45.656;11.302;2023-06-22T08:21:48;16.73;;;14.43;;
33160;SDS011;19522;45.656;11.302;2023-06-22T08:24:14;19.77;;;15.63;;
33160;SDS011;19522;45.656;11.302;2023-06-22T08:26:39;19.80;;;15.23;;
33160;SDS011;19522;45.656;11.302;2023-06-22T08:29:05;25.00;;;15.05;;
33160;SDS011;19522;45.656;11.302;2023-06-22T08:31:31;20.15;;;14.55;;
33160;SDS011;19522;45.656;11.302;2023-06-22T08:33:58;19.77;;;15.60;;
33160;SDS011;19522;45.656;11.302;2023-06-22T08:36:24;21.27;;;15.68;;
33160;SDS011;19522;45.656;11.302;2023-06-22T08:38:50;18.85;;;16.75;;
33160;SDS011;19522;45.656;11.302;2023-06-22T08:41:16;19.63;;;16.83;;
33160;SDS011;19522;45.656;11.302;2023-06-22T08:43:43;21.83;;;17.05;;
33160;SDS011;19522;45.656;11.302;2023-06-22T08:46:09;19.95;;;17.65;;
33160;SDS011;19522;45.656;11.302;2023-06-22T08:48:35;18.15;;;14.93;;
33160;SDS011;19522;45.656;11.302;2023-06-22T08:51:04;23.05;;;17.65;;
33160;SDS011;19522;45.656;11.302;2023-06-22T08:53:29;18.75;;;16.85;;
33160;SDS011;19522;45.656;11.302;2023-06-22T08:55:55;18.77;;;15.75;;
33160;SDS011;19522;45.656;11.302;2023-06-22T08:58:20;21.48;;;17.02;;
33160;SDS011;19522;45.656;11.302;2023-06-22T09:00:46;23.65;;;17.08;;
33160;SDS011;19522;45.656;11.302;2023-06-22T09:03:12;22.73;;;16.98;;
33160;SDS011;19522;45.656;11.302;2023-06-22T09:05:38;22.60;;;16.92;;
33160;SDS011;19522;45.656;11.302;2023-06-22T09:08:04;20.92;;;16.08;;
33160;SDS011;19522;45.656;11.302;2023-06-22T09:10:30;18.67;;;15.60;;
33160;SDS011;19522;45.656;11.302;2023-06-22T09:12:56;20.40;;;15.05;;
33160;SDS011;19522;45.656;11.302;2023-06-22T09:15:22;19.60;;;15.68;;
33160;SDS011;19522;45.656;11.302;2023-06-22T09:17:48;17.73;;;13.80;;
33160;SDS011;19522;45.656;11.302;2023-06-22T09:20:13;22.52;;;15.70;;
33160;SDS011;19522;45.656;11.302;2023-06-22T09:22:39;17.17;;;12.63;;
33160;SDS011;19522;45.656;11.302;2023-06-22T09:25:05;24.52;;;14.32;;
33160;SDS011;19522;45.656;11.302;2023-06-22T09:27:49;22.15;;;14.23;;
33160;SDS011;19522;45.656;11.302;2023-06-22T09:30:15;22.33;;;14.27;;
33160;SDS011;19522;45.656;11.302;2023-06-22T09:32:40;18.55;;;13.40;;
33160;SDS011;19522;45.656;11.302;2023-06-22T09:37:51;20.15;;;14.48;;
33160;SDS011;19522;45.656;11.302;2023-06-22T09:40:17;25.85;;;14.27;;
33160;SDS011;19522;45.656;11.302;2023-06-22T09:42:42;17.35;;;13.80;;
33160;SDS011;19522;45.656;11.302;2023-06-22T09:45:08;18.40;;;13.48;;
33160;SDS011;19522;45.656;11.302;2023-06-22T09:47:34;17.80;;;13.10;;
33160;SDS011;19522;45.656;11.302;2023-06-22T09:49:59;18.75;;;14.35;;
33160;SDS011;19522;45.656;11.302;2023-06-22T09:52:25;19.40;;;14.15;;
33160;SDS011;19522;45.656;11.302;2023-06-22T09:54:50;20.90;;;13.27;;
33160;SDS011;19522;45.656;11.302;2023-06-22T09:57:16;20.42;;;13.52;;
33160;SDS011;19522;45.656;11.302;2023-06-22T09:59:42;19.05;;;13.52;;
33160;SDS011;19522;45.656;11.302;2023-06-22T10:02:07;19.17;;;13.80;;
33160;SDS011;19522;45.656;11.302;2023-06-22T10:04:33;17.98;;;13.52;;
33160;SDS011;19522;45.656;11.302;2023-06-22T10:06:59;21.90;;;14.00;;
33160;SDS011;19522;45.656;11.302;2023-06-22T10:09:26;24.42;;;13.68;;
33160;SDS011;19522;45.656;11.302;2023-06-22T10:11:51;22.48;;;13.88;;
33160;SDS011;19522;45.656;11.302;2023-06-22T10:14:17;19.20;;;12.82;;
33160;SDS011;19522;45.656;11.302;2023-06-22T10:16:42;18.48;;;12.52;;
33160;SDS011;19522;45.656;11.302;2023-06-22T10:19:08;18.65;;;13.52;;
33160;SDS011;19522;45.656;11.302;2023-06-22T10:21:33;17.55;;;12.55;;
33160;SDS011;19522;45.656;11.302;2023-06-22T10:23:59;18.70;;;12.35;;
33160;SDS011;19522;45.656;11.302;2023-06-22T10:26:31;14.80;;;11.68;;
33160;SDS011;19522;45.656;11.302;2023-06-22T10:28:57;20.40;;;12.85;;
33160;SDS011;19522;45.656;11.302;2023-06-22T10:31:23;17.00;;;12.75;;
33160;SDS011;19522;45.656;11.302;2023-06-22T10:33:48;17.95;;;13.30;;
33160;SDS011;19522;45.656;11.302;2023-06-22T10:36:14;19.50;;;13.60;;
33160;SDS011;19522;45.656;11.302;2023-06-22T10:38:40;19.52;;;13.10;;
33160;SDS011;19522;45.656;11.302;2023-06-22T10:41:05;20.50;;;13.48;;
33160;SDS011;19522;45.656;11.302;2023-06-22T10:43:31;20.95;;;13.65;;
33160;SDS011;19522;45.656;11.302;2023-06-22T10:45:57;19.30;;;12.55;;
33160;SDS011;19522;45.656;11.302;2023-06-22T10:48:22;17.15;;;13.23;;
33160;SDS011;19522;45.656;11.302;2023-06-22T10:50:48;16.60;;;12.55;;
33160;SDS011;19522;45.656;11.302;2023-06-22T10:53:13;17.27;;;14.27;;
33160;SDS011;19522;45.656;11.302;2023-06-22T10:55:39;18.80;;;14.88;;
33160;SDS011;19522;45.656;11.302;2023-06-22T10:58:07;20.25;;;14.93;;
33160;SDS011;19522;45.656;11.302;2023-06-22T11:00:32;20.20;;;14.63;;
33160;SDS011;19522;45.656;11.302;2023-06-22T11:02:58;19.80;;;13.63;;
33160;SDS011;19522;45.656;11.302;2023-06-22T11:05:24;23.23;;;14.82;;
33160;SDS011;19522;45.656;11.302;2023-06-22T11:07:49;16.73;;;13.73;;
33160;SDS011;19522;45.656;11.302;2023-06-22T11:10:15;18.50;;;13.90;;
33160;SDS011;19522;45.656;11.302;2023-06-22T11:12:41;20.52;;;14.50;;
33160;SDS011;19522;45.656;11.302;2023-06-22T11:15:08;18.02;;;13.82;;
33160;SDS011;19522;45.656;11.302;2023-06-22T11:17:34;21.10;;;14.60;;
33160;SDS011;19522;45.656;11.302;2023-06-22T11:19:59;17.88;;;14.27;;
33160;SDS011;19522;45.656;11.302;2023-06-22T11:22:25;19.38;;;13.90;;
33160;SDS011;19522;45.656;11.302;2023-06-22T11:24:51;18.77;;;13.23;;
33160;SDS011;19522;45.656;11.302;2023-06-22T11:27:16;17.30;;;13.30;;
33160;SDS011;19522;45.656;11.302;2023-06-22T11:29:42;19.15;;;13.57;;
33160;SDS011;19522;45.656;11.302;2023-06-22T11:32:07;17.95;;;14.40;;
33160;SDS011;19522;45.656;11.302;2023-06-22T11:34:33;18.80;;;14.00;;
33160;SDS011;19522;45.656;11.302;2023-06-22T11:36:59;16.40;;;13.70;;
33160;SDS011;19522;45.656;11.302;2023-06-22T11:39:24;18.85;;;13.45;;
33160;SDS011;19522;45.656;11.302;2023-06-22T11:41:50;18.55;;;13.63;;
33160;SDS011;19522;45.656;11.302;2023-06-22T11:44:15;23.20;;;13.45;;
33160;SDS011;19522;45.656;11.302;2023-06-22T11:46:41;19.17;;;13.77;;
33160;SDS011;19522;45.656;11.302;2023-06-22T11:49:09;16.50;;;12.95;;
33160;SDS011;19522;45.656;11.302;2023-06-22T11:51:35;18.15;;;12.82;;
33160;SDS011;19522;45.656;11.302;2023-06-22T11:54:00;16.95;;;13.13;;
33160;SDS011;19522;45.656;11.302;2023-06-22T11:56:27;17.38;;;12.55;;
33160;SDS011;19522;45.656;11.302;2023-06-22T11:58:53;16.40;;;12.80;;
33160;SDS011;19522;45.656;11.302;2023-06-22T12:01:19;17.38;;;12.77;;
33160;SDS011;19522;45.656;11.302;2023-06-22T12:03:44;19.92;;;13.77;;
33160;SDS011;19522;45.656;11.302;2023-06-22T12:06:10;19.67;;;12.45;;
33160;SDS011;19522;45.656;11.302;2023-06-22T12:08:36;18.10;;;13.60;;
33160;SDS011;19522;45.656;11.302;2023-06-22T12:11:02;18.23;;;13.27;;
33160;SDS011;19522;45.656;11.302;2023-06-22T12:13:28;17.95;;;12.77;;
33160;SDS011;19522;45.656;11.302;2023-06-22T12:15:53;17.13;;;12.65;;
33160;SDS011;19522;45.656;11.302;2023-06-22T12:18:19;16.50;;;13.32;;
33160;SDS011;19522;45.656;11.302;2023-06-22T12:20:46;17.73;;;12.25;;
33160;SDS011;19522;45.656;11.302;2023-06-22T12:23:12;17.80;;;12.50;;
33160;SDS011;19522;45.656;11.302;2023-06-22T12:25:37;17.52;;;13.68;;
33160;SDS011;19522;45.656;11.302;2023-06-22T12:28:03;18.83;;;12.75;;
33160;SDS011;19522;45.656;11.302;2023-06-22T12:30:29;20.55;;;12.88;;
33160;SDS011;19522;45.656;11.302;2023-06-22T12:32:55;21.92;;;13.05;;
33160;SDS011;19522;45.656;11.302;2023-06-22T12:35:21;17.70;;;12.27;;
33160;SDS011;19522;45.656;11.302;2023-06-22T12:37:46;18.30;;;12.57;;
33160;SDS011;19522;45.656;11.302;2023-06-22T12:40:12;16.13;;;12.30;;
33160;SDS011;19522;45.656;11.302;2023-06-22T12:42:38;18.88;;;13.05;;
33160;SDS011;19522;45.656;11.302;2023-06-22T12:45:04;18.42;;;12.10;;
33160;SDS011;19522;45.656;11.302;2023-06-22T12:47:30;18.98;;;12.60;;
33160;SDS011;19522;45.656;11.302;2023-06-22T12:49:59;20.92;;;13.57;;
33160;SDS011;19522;45.656;11.302;2023-06-22T12:52:24;22.60;;;14.48;;
33160;SDS011;19522;45.656;11.302;2023-06-22T12:54:50;20.15;;;12.45;;
33160;SDS011;19522;45.656;11.302;2023-06-22T12:57:17;15.30;;;12.27;;
33160;SDS011;19522;45.656;11.302;2023-06-22T12:59:44;18.27;;;12.75;;
33160;SDS011;19522;45.656;11.302;2023-06-22T13:02:10;19.52;;;13.05;;
33160;SDS011;19522;45.656;11.302;2023-06-22T13:04:36;17.40;;;11.82;;
33160;SDS011;19522;45.656;11.302;2023-06-22T13:07:01;15.82;;;12.18;;
33160;SDS011;19522;45.656;11.302;2023-06-22T13:09:27;17.08;;;12.65;;
33160;SDS011;19522;45.656;11.302;2023-06-22T13:11:52;17.25;;;12.13;;
33160;SDS011;19522;45.656;11.302;2023-06-22T13:14:18;20.35;;;13.35;;
33160;SDS011;19522;45.656;11.302;2023-06-22T13:16:43;17.55;;;12.13;;
33160;SDS011;19522;45.656;11.302;2023-06-22T13:19:09;20.33;;;12.55;;
33160;SDS011;19522;45.656;11.302;2023-06-22T13:21:35;21.52;;;13.18;;
33160;SDS011;19522;45.656;11.302;2023-06-22T13:24:00;18.92;;;12.60;;
33160;SDS011;19522;45.656;11.302;2023-06-22T13:26:26;30.93;;;22.53;;
33160;SDS011;19522;45.656;11.302;2023-06-22T13:28:56;18.95;;;12.07;;
33160;SDS011;19522;45.656;11.302;2023-06-22T13:31:22;18.08;;;12.52;;
33160;SDS011;19522;45.656;11.302;2023-06-22T13:33:48;17.80;;;11.73;;
33160;SDS011;19522;45.656;11.302;2023-06-22T13:36:14;22.10;;;11.63;;
33160;SDS011;19522;45.656;11.302;2023-06-22T13:38:40;19.02;;;12.00;;
33160;SDS011;19522;45.656;11.302;2023-06-22T13:41:06;14.32;;;11.50;;
33160;SDS011;19522;45.656;11.302;2023-06-22T13:43:31;24.40;;;12.73;;
33160;SDS011;19522;45.656;11.302;2023-06-22T13:45:57;20.55;;;12.68;;
33160;SDS011;19522;45.656;11.302;2023-06-22T13:48:22;19.90;;;12.10;;
33160;SDS011;19522;45.656;11.302;2023-06-22T13:50:51;15.27;;;12.13;;
33160;SDS011;19522;45.656;11.302;2023-06-22T13:53:17;17.13;;;12.65;;
33160;SDS011;19522;45.656;11.302;2023-06-22T13:55:42;17.23;;;11.48;;
33160;SDS011;19522;45.656;11.302;2023-06-22T13:58:08;16.58;;;12.50;;
33160;SDS011;19522;45.656;11.302;2023-06-22T14:00:33;15.73;;;11.38;;
33160;SDS011;19522;45.656;11.302;2023-06-22T14:02:59;18.85;;;13.10;;
33160;SDS011;19522;45.656;11.302;2023-06-22T14:05:25;19.35;;;12.95;;
33160;SDS011;19522;45.656;11.302;2023-06-22T14:07:50;15.57;;;11.80;;
33160;SDS011;19522;45.656;11.302;2023-06-22T14:10:16;16.77;;;12.38;;
33160;SDS011;19522;45.656;11.302;2023-06-22T14:12:41;17.65;;;12.00;;
33160;SDS011;19522;45.656;11.302;2023-06-22T14:15:07;15.95;;;12.18;;
33160;SDS011;19522;45.656;11.302;2023-06-22T14:17:33;16.48;;;12.32;;
33160;SDS011;19522;45.656;11.302;2023-06-22T14:19:58;17.42;;;11.63;;
33160;SDS011;19522;45.656;11.302;2023-06-22T14:22:24;22.13;;;12.48;;